Time;durP1;ratioP1;P1;durP2;ratioP2;P2;SDS_P1;SDS_P2;PMS_P1;PMS_P2;Temp;Humidity;BMP_temperature;BMP_pressure;BME280_temperature;BME280_humidity;BME280_pressure;Samples;Min_cycle;Max_cycle;Signal;HPM_P1;HPM_P2
2021/09/01 00:00:28;;;;;;;8.43;5.75;;;;;;;10.14;100.00;99628.13;5052909;28;20028;-69
2021/09/01 00:02:54;;;;;;;9.15;6.57;;;;;;;10.17;100.00;99628.63;5053101;28;20112;-69
2021/09/01 00:05:20;;;;;;;12.68;6.45;;;;;;;10.26;100.00;99626.69;5053974;28;20542;-69
2021/09/01 00:07:47;;;;;;;9.65;6.13;;;;;;;10.21;100.00;99634.50;5052963;28;20029;-69
2021/09/01 00:10:13;;;;;;;9.63;6.22;;;;;;;10.08;100.00;99610.75;5054586;28;20025;-69
2021/09/01 00:12:38;;;;;;;7.72;5.40;;;;;;;10.16;100.00;99635.03;5054563;28;20398;-69
2021/09/01 00:15:06;;;;;;;8.48;5.60;;;;;;;10.07;100.00;99617.19;5054533;28;20032;-69
2021/09/01 00:17:31;;;;;;;8.23;6.05;;;;;;;10.02;100.00;99625.84;5054382;28;20060;-69
2021/09/01 00:19:56;;;;;;;8.25;5.55;;;;;;;9.94;100.00;99634.00;5054382;28;20017;-69
2021/09/01 00:22:22;;;;;;;8.05;5.68;;;;;;;9.79;100.00;99624.97;5053616;28;20029;-69
2021/09/01 00:24:47;;;;;;;15.52;7.40;;;;;;;9.90;100.00;99642.66;5053374;28;20029;-69
2021/09/01 00:27:13;;;;;;;10.18;7.10;;;;;;;10.00;100.00;99645.97;5052094;28;20029;-68
2021/09/01 00:29:39;;;;;;;10.43;6.93;;;;;;;9.92;100.00;99624.41;5053277;28;20047;-69
2021/09/01 00:32:05;;;;;;;8.55;6.22;;;;;;;9.94;100.00;99617.78;5053647;28;20028;-69
2021/09/01 00:34:30;;;;;;;8.55;6.13;;;;;;;9.93;100.00;99631.47;5052373;28;20071;-69
2021/09/01 00:36:55;;;;;;;8.63;6.38;;;;;;;9.86;100.00;99643.00;5053708;28;20390;-69
2021/09/01 00:39:21;;;;;;;14.15;5.95;;;;;;;9.80;100.00;99632.09;5053579;28;20036;-69
2021/09/01 00:41:47;;;;;;;9.68;6.53;;;;;;;9.70;100.00;99632.31;5053748;28;20032;-69
2021/09/01 00:44:23;;;;;;;11.18;6.43;;;;;;;9.83;100.00;99629.03;5052727;28;20111;-69
2021/09/01 00:46:49;;;;;;;14.45;7.20;;;;;;;9.90;100.00;99639.94;5053712;28;20505;-69
2021/09/01 00:49:15;;;;;;;14.48;7.25;;;;;;;9.86;100.00;99629.50;5052127;28;20036;-69
2021/09/01 00:51:42;;;;;;;16.63;7.15;;;;;;;9.85;100.00;99633.22;5052711;28;20029;-70
2021/09/01 00:54:10;;;;;;;12.98;7.20;;;;;;;9.79;100.00;99636.63;5053177;28;20051;-70
2021/09/01 00:56:36;;;;;;;13.45;6.50;;;;;;;9.81;100.00;99634.59;5053672;28;20502;-69
2021/09/01 00:59:01;;;;;;;10.05;5.82;;;;;;;9.66;100.00;99623.69;5053309;28;20036;-69
2021/09/01 01:01:26;;;;;;;8.25;5.55;;;;;;;9.66;100.00;99629.09;5053138;28;20052;-69
2021/09/01 01:03:54;;;;;;;11.48;5.65;;;;;;;9.68;100.00;99634.34;5053426;28;20510;-69
2021/09/01 01:06:24;;;;;;;8.93;6.25;;;;;;;9.53;100.00;99611.78;5051604;28;20025;-69
2021/09/01 01:08:50;;;;;;;10.13;5.40;;;;;;;9.64;100.00;99633.84;5053480;28;20059;-69
2021/09/01 01:11:16;;;;;;;9.35;6.32;;;;;;;9.68;100.00;99639.75;5052812;28;20135;-69
2021/09/01 01:13:43;;;;;;;15.40;7.18;;;;;;;9.50;100.00;99598.63;5052734;28;20502;-69
2021/09/01 01:16:10;;;;;;;12.18;6.55;;;;;;;9.71;100.00;99625.03;5053176;28;20020;-69
2021/09/01 01:18:36;;;;;;;11.80;6.50;;;;;;;9.67;100.00;99632.66;5050761;28;20029;-69
2021/09/01 01:21:01;;;;;;;9.80;5.93;;;;;;;9.64;100.00;99630.28;5052586;28;20375;-70
2021/09/01 01:23:26;;;;;;;10.80;6.78;;;;;;;9.55;100.00;99612.44;5052147;28;20056;-69
2021/09/01 01:25:52;;;;;;;11.25;5.43;;;;;;;9.61;100.00;99628.78;5052782;28;20037;-69
2021/09/01 01:28:17;;;;;;;7.05;5.00;;;;;;;9.51;100.00;99611.09;5052430;28;20049;-69
2021/09/01 01:30:43;;;;;;;7.45;5.47;;;;;;;9.48;100.00;99611.47;5052889;28;20106;-69
2021/09/01 01:33:09;;;;;;;8.82;5.10;;;;;;;9.29;100.00;99608.19;5053266;28;20052;-69
2021/09/01 01:35:43;;;;;;;12.00;5.75;;;;;;;9.40;100.00;99634.78;5052589;28;20020;-70
2021/09/01 01:38:11;;;;;;;11.50;5.30;;;;;;;9.47;100.00;99615.19;5050268;28;20029;-70
2021/09/01 01:40:37;;;;;;;7.25;5.13;;;;;;;9.65;100.00;99630.13;5053099;28;20028;-69
2021/09/01 01:43:04;;;;;;;5.93;4.45;;;;;;;9.55;100.00;99624.09;5050264;28;20079;-69
2021/09/01 01:45:34;;;;;;;7.75;4.20;;;;;;;9.44;100.00;99624.50;5052568;28;20029;-69
2021/09/01 01:48:00;;;;;;;8.20;5.72;;;;;;;9.38;100.00;99617.94;5052803;28;20017;-69
2021/09/01 01:50:26;;;;;;;9.30;6.03;;;;;;;9.36;100.00;99614.56;5053028;28;20016;-70
2021/09/01 01:52:51;;;;;;;10.20;6.18;;;;;;;9.47;100.00;99628.69;5052320;28;20554;-70
2021/09/01 01:55:16;;;;;;;8.93;5.68;;;;;;;9.48;100.00;99635.78;5052472;28;20128;-70
2021/09/01 01:57:42;;;;;;;5.15;4.07;;;;;;;9.46;100.00;99637.81;5052853;28;20017;-69
2021/09/01 02:00:08;;;;;;;5.68;4.38;;;;;;;9.40;100.00;99636.66;5052825;28;20422;-70
2021/09/01 02:02:33;;;;;;;6.40;4.70;;;;;;;9.42;100.00;99643.56;5052163;28;20479;-69
2021/09/01 02:05:00;;;;;;;7.03;4.38;;;;;;;9.44;100.00;99646.94;5056373;28;20052;-69
2021/09/01 02:07:29;;;;;;;8.98;5.28;;;;;;;9.42;100.00;99640.88;5065172;28;20017;-70
2021/09/01 02:09:55;;;;;;;5.70;4.38;;;;;;;9.44;100.00;99638.00;5041759;28;20529;-70
2021/09/01 02:12:21;;;;;;;10.43;6.47;;;;;;;9.52;100.00;99645.22;5056004;28;20391;-69
2021/09/01 02:14:47;;;;;;;11.73;7.30;;;;;;;9.51;100.00;99638.13;5055028;28;20029;-70
2021/09/01 02:17:12;;;;;;;16.73;6.32;;;;;;;9.52;100.00;99639.81;5056157;28;20060;-69
2021/09/01 02:19:38;;;;;;;10.68;7.00;;;;;;;9.47;100.00;99642.22;5056132;28;20032;-69
2021/09/01 02:22:04;;;;;;;11.40;6.50;;;;;;;9.43;100.00;99639.88;5056136;28;20025;-69
2021/09/01 02:24:29;;;;;;;13.77;7.63;;;;;;;9.27;100.00;99617.47;5055742;28;20052;-69
2021/09/01 02:26:55;;;;;;;15.75;7.63;;;;;;;9.39;100.00;99649.31;5056014;28;20479;-69
2021/09/01 02:29:20;;;;;;;21.27;7.57;;;;;;;9.31;100.00;99643.97;5054525;28;20407;-69
2021/09/01 02:31:46;;;;;;;31.15;6.82;;;;;;;9.26;100.00;99648.19;5056319;28;20021;-69
2021/09/01 02:34:11;;;;;;;9.77;6.35;;;;;;;9.04;100.00;99625.47;5053521;28;20507;-69
2021/09/01 02:36:36;;;;;;;15.60;6.55;;;;;;;9.19;100.00;99656.13;5055739;28;20025;-69
2021/09/01 02:39:03;;;;;;;13.90;7.00;;;;;;;9.28;100.00;99654.28;5055189;28;20040;-69
2021/09/01 02:41:28;;;;;;;13.02;7.07;;;;;;;9.31;100.00;99637.72;5055943;28;20029;-69
2021/09/01 02:43:54;;;;;;;10.57;6.85;;;;;;;9.38;100.00;99634.16;5055331;28;20029;-70
2021/09/01 02:46:19;;;;;;;17.95;7.35;;;;;;;9.56;100.00;99652.81;5055705;28;20029;-69
2021/09/01 02:48:45;;;;;;;11.38;7.30;;;;;;;9.54;100.00;99637.78;5054603;28;20554;-69
2021/09/01 02:51:11;;;;;;;10.75;7.32;;;;;;;9.54;100.00;99627.81;5055686;28;20063;-70
2021/09/01 02:53:36;;;;;;;18.25;7.68;;;;;;;9.70;100.00;99653.91;5054679;28;20444;-69
2021/09/01 02:56:02;;;;;;;11.82;7.40;;;;;;;9.80;100.00;99657.25;5055615;28;20025;-69
2021/09/01 02:58:27;;;;;;;11.52;7.32;;;;;;;9.71;100.00;99633.13;5055758;28;20067;-70
2021/09/01 03:00:53;;;;;;;25.02;7.95;;;;;;;9.80;100.00;99659.13;5055619;28;20021;-69
2021/09/01 03:03:18;;;;;;;26.38;8.13;;;;;;;9.86;100.00;99651.13;5055092;28;20021;-69
2021/09/01 03:05:43;;;;;;;12.98;8.23;;;;;;;10.03;100.00;99661.81;5056365;28;20028;-69
2021/09/01 03:08:09;;;;;;;15.63;8.00;;;;;;;10.01;100.00;99658.47;5059383;28;20082;-70
2021/09/01 03:10:34;;;;;;;16.85;8.75;;;;;;;10.08;100.00;99656.72;5058539;28;20032;-69
2021/09/01 03:13:00;;;;;;;21.08;8.48;;;;;;;9.98;100.00;99637.19;5059627;28;20044;-70
2021/09/01 03:15:25;;;;;;;18.02;8.25;;;;;;;10.19;100.00;99661.75;5057603;28;20032;-69
2021/09/01 03:17:51;;;;;;;19.30;9.45;;;;;;;10.11;100.00;99640.13;5058662;28;20475;-69
2021/09/01 03:20:16;;;;;;;17.30;8.60;;;;;;;10.19;100.00;99636.53;5058460;28;20071;-69
2021/09/01 03:22:41;;;;;;;17.15;8.57;;;;;;;10.31;100.00;99662.19;5057681;28;20037;-69
2021/09/01 03:25:07;;;;;;;15.82;8.35;;;;;;;10.25;100.00;99652.91;5055194;28;20027;-69
2021/09/01 03:27:32;;;;;;;19.48;8.95;;;;;;;10.26;100.00;99659.97;5058164;28;20637;-70
2021/09/01 03:29:58;;;;;;;18.92;9.27;;;;;;;10.28;100.00;99657.97;5055892;28;20108;-69
2021/09/01 03:32:23;;;;;;;18.50;9.48;;;;;;;10.43;100.00;99673.44;5057873;28;20498;-70
2021/09/01 03:34:49;;;;;;;51.80;9.27;;;;;;;10.37;100.00;99668.72;5056840;28;20021;-69
2021/09/01 03:37:14;;;;;;;19.52;9.73;;;;;;;10.33;100.00;99660.13;5055981;28;20108;-70
2021/09/01 03:39:40;;;;;;;32.92;9.55;;;;;;;10.37;100.00;99661.44;5048121;28;20061;-69
2021/09/01 03:42:06;;;;;;;16.88;8.32;;;;;;;10.48;100.00;99673.72;5054410;28;20082;-70
2021/09/01 03:44:31;;;;;;;26.40;9.18;;;;;;;10.48;100.00;99673.72;5054307;28;20036;-70
2021/09/01 03:46:56;;;;;;;23.17;8.40;;;;;;;10.48;100.00;99669.16;5053161;28;20025;-70
2021/09/01 03:49:22;;;;;;;21.80;8.07;;;;;;;10.47;100.00;99677.44;5053821;28;20394;-70
2021/09/01 03:51:48;;;;;;;16.88;7.85;;;;;;;10.38;100.00;99655.03;5053862;28;20494;-70
2021/09/01 03:54:14;;;;;;;14.48;8.07;;;;;;;10.57;100.00;99672.63;5054623;28;20047;-71
2021/09/01 03:56:39;;;;;;;27.50;8.48;;;;;;;10.45;100.00;99674.06;5054285;28;20561;-69
2021/09/01 03:59:05;;;;;;;18.85;7.47;;;;;;;10.33;100.00;99660.13;5053011;28;20033;-69
2021/09/01 04:01:32;;;;;;;44.65;8.45;;;;;;;10.41;100.00;99672.75;5054463;28;20029;-69
2021/09/01 04:03:59;;;;;;;16.88;8.35;;;;;;;10.42;100.00;99677.13;5054548;28;20036;-69
2021/09/01 04:06:25;;;;;;;14.05;7.43;;;;;;;10.41;100.00;99667.34;5054063;28;20025;-69
2021/09/01 04:08:50;;;;;;;17.08;7.20;;;;;;;10.46;100.00;99675.78;5055085;28;20025;-69
2021/09/01 04:11:15;;;;;;;14.75;7.60;;;;;;;10.49;100.00;99683.53;5054402;28;20037;-69
2021/09/01 04:13:41;;;;;;;20.42;7.28;;;;;;;10.56;100.00;99683.63;5054042;28;20032;-69
2021/09/01 04:16:06;;;;;;;16.35;7.20;;;;;;;10.55;100.00;99690.06;5053729;28;20111;-69
2021/09/01 04:18:31;;;;;;;14.18;6.57;;;;;;;10.48;100.00;99673.72;5053995;28;20043;-70
2021/09/01 04:20:57;;;;;;;14.23;7.72;;;;;;;10.57;100.00;99686.16;5054076;28;20472;-69
2021/09/01 04:23:22;;;;;;;12.52;7.47;;;;;;;10.57;100.00;99680.75;5053819;28;20036;-69
2021/09/01 04:25:47;;;;;;;19.83;8.73;;;;;;;10.51;100.00;99684.19;5053305;28;20025;-70
2021/09/01 04:28:13;;;;;;;42.92;9.15;;;;;;;10.46;100.00;99681.19;5064848;22;20453;-65
2021/09/01 04:30:38;;;;;;;23.92;8.65;;;;;;;10.36;100.00;99664.34;5034214;28;20029;-65
2021/09/01 04:33:03;;;;;;;33.00;9.50;;;;;;;10.50;100.00;99687.88;5034044;28;20038;-64
2021/09/01 04:35:28;;;;;;;26.75;10.13;;;;;;;10.57;100.00;99683.44;5033372;28;20060;-65
2021/09/01 04:37:54;;;;;;;27.10;8.77;;;;;;;10.57;100.00;99686.16;5032357;28;20633;-65
2021/09/01 04:40:19;;;;;;;35.08;8.88;;;;;;;10.53;100.00;99684.81;5033648;28;20053;-65
2021/09/01 04:42:44;;;;;;;15.45;8.80;;;;;;;10.49;100.00;99692.47;5033484;28;20083;-65
2021/09/01 04:45:10;;;;;;;51.50;9.55;;;;;;;10.48;100.00;99687.25;5031638;28;20116;-75
2021/09/01 04:47:36;;;;;;;21.30;8.75;;;;;;;10.50;100.00;99686.03;5029112;28;20028;-73
2021/09/01 04:50:01;;;;;;;19.20;9.38;;;;;;;10.45;100.00;99684.88;5039407;28;20033;-73
2021/09/01 04:52:27;;;;;;;21.77;9.52;;;;;;;10.48;100.00;99695.38;5033301;28;20027;-74
2021/09/01 04:54:52;;;;;;;44.10;11.18;;;;;;;10.49;100.00;99695.19;5031782;28;20017;-73
2021/09/01 04:57:18;;;;;;;30.40;10.52;;;;;;;10.54;100.00;99702.75;5015753;28;20030;-75
2021/09/01 04:59:43;;;;;;;25.40;10.05;;;;;;;10.52;100.00;99691.25;5029260;28;20076;-75
2021/09/01 05:02:08;;;;;;;53.85;12.05;;;;;;;10.48;100.00;99685.38;5035366;28;20432;-74
2021/09/01 05:04:34;;;;;;;44.25;9.50;;;;;;;10.57;100.00;99688.84;5032242;28;20055;-74
2021/09/01 05:06:59;;;;;;;21.48;9.65;;;;;;;10.52;100.00;99689.41;5032358;28;20025;-75
2021/09/01 05:09:24;;;;;;;49.55;10.90;;;;;;;10.55;100.00;99690.91;5032839;28;20568;-74
2021/09/01 05:11:50;;;;;;;45.08;9.27;;;;;;;10.44;100.00;99694.03;5032213;28;20033;-72
2021/09/01 05:14:15;;;;;;;15.82;8.20;;;;;;;10.62;100.00;99707.25;5039880;28;20155;-74
2021/09/01 05:16:40;;;;;;;14.70;8.57;;;;;;;10.72;100.00;99700.56;5031003;28;20029;-74
2021/09/01 05:19:07;;;;;;;40.45;8.88;;;;;;;10.63;100.00;99704.34;5031902;28;20034;-73
2021/09/01 05:21:34;;;;;;;14.00;8.23;;;;;;;10.58;100.00;99698.66;5033192;28;20030;-72
2021/09/01 05:24:00;;;;;;;33.78;8.50;;;;;;;10.78;100.00;99701.72;5041201;28;20109;-73
2021/09/01 05:26:31;;;;;;;20.88;8.07;;;;;;;10.80;100.00;99690.72;5049521;28;20474;-73
2021/09/01 05:29:01;;;;;;;19.95;9.18;;;;;;;11.01;100.00;99688.13;5039918;28;20029;-75
2021/09/01 05:31:31;;;;;;;31.17;9.40;;;;;;;11.27;100.00;99700.41;5051807;28;20026;-74
2021/09/01 05:33:59;;;;;;;;;;;;;;;11.23;100.00;99702.63;5036040;28;20033;-74
2021/09/01 05:36:24;;;;;;;20.05;7.15;;;;;;;11.32;100.00;99703.41;5048010;28;19909;-68
2021/09/01 05:38:50;;;;;;;22.38;8.60;;;;;;;11.20;100.00;99694.88;5048563;28;20070;-73
2021/09/01 05:41:16;;;;;;;188.20;10.65;;;;;;;11.29;100.00;99715.44;5048643;28;20035;-70
2021/09/01 05:43:42;;;;;;;81.63;9.85;;;;;;;11.09;100.00;99669.09;5047919;28;20032;-73
2021/09/01 05:46:09;;;;;;;68.25;9.07;;;;;;;11.43;100.00;99705.63;5055493;28;20025;-75
2021/09/01 05:48:36;;;;;;;61.30;10.25;;;;;;;11.56;100.00;99707.69;5055139;28;20136;-73
2021/09/01 05:51:01;;;;;;;100.07;9.60;;;;;;;11.57;100.00;99709.34;5045540;28;20025;-73
2021/09/01 05:53:27;;;;;;;283.50;12.02;;;;;;;11.49;100.00;99702.16;5046076;28;20124;-70
2021/09/01 05:55:54;;;;;;;170.48;9.93;;;;;;;11.38;100.00;99710.78;5050484;28;20020;-71
2021/09/01 05:58:20;;;;;;;213.20;10.63;;;;;;;11.43;100.00;99710.22;5046606;28;20391;-70
2021/09/01 06:00:57;;;;;;;12.75;6.90;;;;;;;11.65;100.00;99709.25;5045257;28;20022;-70
2021/09/01 06:03:36;;;;;;;64.25;9.02;;;;;;;11.54;100.00;99704.31;5039075;28;20039;-70
2021/09/01 06:06:02;;;;;;;86.10;8.50;;;;;;;11.63;100.00;99714.88;5043961;28;20048;-69
2021/09/01 06:08:34;;;;;;;271.92;11.23;;;;;;;11.49;100.00;99709.47;5039186;28;20049;-70
2021/09/01 06:11:02;;;;;;;9.73;6.57;;;;;;;11.52;100.00;99715.34;5026373;28;20057;-71
2021/09/01 06:13:27;;;;;;;71.93;8.55;;;;;;;11.74;100.00;99724.41;5027217;28;20021;-69
2021/09/01 06:15:53;;;;;;;65.88;9.02;;;;;;;11.83;100.00;99712.41;5020006;28;20105;-73
2021/09/01 06:18:19;;;;;;;33.22;7.45;;;;;;;12.02;100.00;99723.72;5020409;28;20052;-70
2021/09/01 06:20:44;;;;;;;26.30;7.22;;;;;;;12.19;100.00;99716.22;5022614;28;20034;-69
2021/09/01 06:23:10;;;;;;;34.28;7.63;;;;;;;12.17;100.00;99712.84;5022589;28;20083;-72
2021/09/01 06:25:36;;;;;;;83.05;8.98;;;;;;;12.03;100.00;99725.44;5032454;28;20386;-71
2021/09/01 06:28:03;;;;;;;135.23;9.30;;;;;;;11.98;100.00;99722.44;5034311;28;20030;-75
2021/09/01 06:30:29;;;;;;;14.45;6.82;;;;;;;12.24;100.00;99725.47;5041544;28;20025;-69
2021/09/01 06:32:54;;;;;;;23.10;8.40;;;;;;;12.46;100.00;99726.31;5037431;28;20047;-76
2021/09/01 06:35:21;;;;;;;41.45;8.52;;;;;;;12.57;100.00;99718.69;5023447;28;20030;-69
2021/09/01 06:37:46;;;;;;;21.42;7.57;;;;;;;12.77;100.00;99722.44;5031780;28;20057;-73
2021/09/01 06:40:14;;;;;;;21.95;7.47;;;;;;;12.94;98.98;99729.28;5042751;28;20061;-74
2021/09/01 06:42:40;;;;;;;52.95;7.85;;;;;;;13.19;97.92;99730.75;5031174;28;20017;-75
2021/09/01 06:45:06;;;;;;;72.28;8.57;;;;;;;13.13;95.90;99733.22;5029028;28;20078;-70
2021/09/01 06:47:45;;;;;;;39.05;7.65;;;;;;;12.97;96.77;99728.06;5031787;28;20029;-74
2021/09/01 06:50:14;;;;;;;117.15;9.10;;;;;;;12.80;95.48;99722.06;5032989;28;20029;-71
2021/09/01 06:52:42;;;;;;;20.43;6.93;;;;;;;12.94;96.02;99732.00;5036041;28;20032;-73
2021/09/01 06:55:08;;;;;;;83.05;7.43;;;;;;;12.84;94.37;99726.06;5032519;28;20629;-71
2021/09/01 06:57:34;;;;;;;224.82;10.18;;;;;;;12.63;95.05;99734.22;5043181;28;20452;-71
2021/09/01 07:00:00;;;;;;;16.67;6.13;;;;;;;12.95;95.00;99719.25;5035531;28;20029;-72
2021/09/01 07:02:25;;;;;;;113.13;8.15;;;;;;;13.14;91.79;99736.75;5034539;28;20036;-73
2021/09/01 07:04:51;;;;;;;62.20;8.02;;;;;;;13.22;92.25;99728.44;5032711;28;20036;-74
2021/09/01 07:07:16;;;;;;;72.70;7.88;;;;;;;13.24;92.82;99731.81;5034963;28;20108;-69
2021/09/01 07:09:41;;;;;;;13.57;6.90;;;;;;;13.60;91.09;99736.28;5042550;28;20028;-74
2021/09/01 07:12:07;;;;;;;34.55;7.75;;;;;;;13.77;90.90;99743.06;5042393;28;20415;-74
2021/09/01 07:14:32;;;;;;;44.00;6.15;;;;;;;13.87;89.61;99742.69;5027834;28;20034;-74
2021/09/01 07:16:57;;;;;;;30.33;7.00;;;;;;;14.15;87.68;99734.44;5023838;28;20036;-73
2021/09/01 07:19:23;;;;;;;30.42;6.28;;;;;;;14.41;87.02;99727.41;5041189;28;20025;-72
2021/09/01 07:21:48;;;;;;;10.07;6.43;;;;;;;14.59;85.14;99746.75;5033735;28;20047;-74
2021/09/01 07:24:13;;;;;;;15.15;6.63;;;;;;;14.39;86.68;99727.63;5034189;28;20033;-75
2021/09/01 07:26:39;;;;;;;9.63;6.28;;;;;;;14.85;85.53;99735.03;5025008;28;20021;-74
2021/09/01 07:29:04;;;;;;;12.18;7.30;;;;;;;14.61;86.23;99738.38;5036935;28;20091;-75
2021/09/01 07:31:31;;;;;;;55.17;6.70;;;;;;;14.54;83.39;99748.41;5043553;28;20533;-75
2021/09/01 07:33:57;;;;;;;17.17;6.97;;;;;;;14.73;85.37;99758.50;5029169;28;20033;-73
2021/09/01 07:36:22;;;;;;;32.17;7.63;;;;;;;14.61;86.02;99754.72;5029513;28;20031;-73
2021/09/01 07:38:48;;;;;;;27.55;7.20;;;;;;;14.87;84.62;99756.63;5033351;28;20017;-72
2021/09/01 07:41:13;;;;;;;23.35;7.47;;;;;;;14.72;84.97;99764.16;5023755;28;20053;-74
2021/09/01 07:43:38;;;;;;;19.15;8.43;;;;;;;15.20;84.19;99767.56;5017184;28;20107;-74
2021/09/01 07:46:04;;;;;;;13.43;7.57;;;;;;;15.72;82.90;99771.31;5032509;28;20479;-70
2021/09/01 07:48:29;;;;;;;14.35;7.55;;;;;;;15.99;80.41;99769.34;5034974;28;20101;-69
2021/09/01 07:50:54;;;;;;;10.45;6.95;;;;;;;15.76;81.40;99766.25;5038368;28;20079;-70
2021/09/01 07:53:20;;;;;;;10.80;6.90;;;;;;;15.77;79.44;99765.19;5037985;28;20033;-70
2021/09/01 07:55:45;;;;;;;19.23;7.20;;;;;;;15.87;78.50;99767.50;5032356;28;20117;-70
2021/09/01 07:58:11;;;;;;;15.50;6.53;;;;;;;16.94;75.40;99771.41;5026487;28;20021;-70
2021/09/01 08:00:37;;;;;;;23.40;6.57;;;;;;;16.76;73.28;99769.38;5027030;28;20022;-70
2021/09/01 08:03:02;;;;;;;11.77;7.68;;;;;;;16.42;76.03;99768.75;5026814;28;20564;-70
2021/09/01 08:05:27;;;;;;;21.02;6.68;;;;;;;16.56;76.14;99776.91;5030836;28;20039;-72
2021/09/01 08:07:53;;;;;;;13.23;6.70;;;;;;;16.77;75.26;99778.44;5031528;28;20021;-72
2021/09/01 08:10:18;;;;;;;8.85;6.30;;;;;;;16.72;76.07;99778.28;5043613;28;20112;-75
2021/09/01 08:12:44;;;;;;;11.07;6.90;;;;;;;16.50;76.23;99789.50;5020446;28;20108;-74
2021/09/01 08:15:10;;;;;;;11.25;7.38;;;;;;;16.64;75.87;99788.38;5037634;28;20087;-73
2021/09/01 08:17:37;;;;;;;11.50;7.72;;;;;;;16.69;76.27;99792.34;5034811;28;20045;-72
2021/09/01 08:20:03;;;;;;;14.20;8.23;;;;;;;16.35;76.80;99781.59;5033016;28;22223;-73
2021/09/01 08:22:28;;;;;;;13.07;8.18;;;;;;;16.93;75.15;99786.16;5034321;28;20112;-75
2021/09/01 08:24:53;;;;;;;10.35;7.93;;;;;;;18.45;70.00;99784.91;5032431;28;20059;-73
2021/09/01 08:27:19;;;;;;;8.45;6.15;;;;;;;20.76;62.79;99781.06;5031609;28;20165;-72
2021/09/01 08:29:44;;;;;;;10.57;7.22;;;;;;;20.63;62.59;99786.88;5040948;28;20562;-73
2021/09/01 08:32:09;;;;;;;9.23;7.03;;;;;;;20.39;61.33;99764.09;5052066;28;20085;-75
2021/09/01 08:34:35;;;;;;;9.48;7.15;;;;;;;21.08;60.41;99772.28;5050635;28;20026;-70
2021/09/01 08:37:02;;;;;;;9.63;7.25;;;;;;;21.07;60.01;99779.72;5034751;28;20368;-70
2021/09/01 08:39:28;;;;;;;9.65;7.15;;;;;;;20.94;60.58;99778.13;5044769;28;20017;-71
2021/09/01 08:41:54;;;;;;;8.88;7.15;;;;;;;20.57;61.22;99783.19;5044869;28;20087;-70
2021/09/01 08:44:19;;;;;;;12.85;7.53;;;;;;;19.39;65.27;99776.97;5049424;28;20033;-73
2021/09/01 08:46:49;;;;;;;10.40;7.75;;;;;;;22.07;59.15;99777.97;5050039;28;20034;-71
2021/09/01 08:49:16;;;;;;;9.02;6.50;;;;;;;24.91;51.50;99772.50;5044491;28;20040;-74
2021/09/01 08:51:42;;;;;;;7.55;6.15;;;;;;;26.19;47.00;99769.66;5042864;28;20033;-73
2021/09/01 08:54:07;;;;;;;7.13;5.57;;;;;;;26.52;45.38;99770.13;5047530;28;20084;-76
2021/09/01 08:56:33;;;;;;;8.18;6.25;;;;;;;26.94;44.58;99780.69;5034180;28;20028;-74
2021/09/01 08:58:58;;;;;;;6.65;5.15;;;;;;;29.64;39.22;99761.91;5023579;28;20044;-80
2021/09/01 09:01:43;;;;;;;7.00;5.20;;;;;;;28.96;39.86;99763.28;5024276;28;20029;-76
2021/09/01 09:04:27;;;;;;;8.20;6.03;;;;;;;28.24;40.57;99784.81;5021110;28;20487;-76
2021/09/01 09:06:58;;;;;;;6.55;5.35;;;;;;;29.67;38.58;99780.81;5033439;28;20407;-75
2021/09/01 09:09:25;;;;;;;8.45;5.75;;;;;;;30.02;37.27;99780.44;5021429;28;20029;-71
2021/09/01 09:11:51;;;;;;;6.55;4.60;;;;;;;30.74;36.75;99777.84;5031111;28;20031;-71
2021/09/01 09:14:22;;;;;;;6.60;5.78;;;;;;;29.70;37.31;99771.84;5032106;28;20479;-73
2021/09/01 09:17:04;;;;;;;7.30;5.28;;;;;;;29.66;38.47;99778.34;5032415;28;20040;-68
2021/09/01 09:19:51;;;;;;;5.60;4.72;;;;;;;30.74;36.91;99766.69;5034957;28;20021;-68
2021/09/01 09:22:19;;;;;;;7.10;5.72;;;;;;;30.90;36.47;99752.38;5047689;28;20025;-68
2021/09/01 09:24:59;;;;;;;6.45;5.30;;;;;;;28.83;39.82;99750.09;5032446;28;20033;-68
2021/09/01 09:27:40;;;;;;;6.47;5.15;;;;;;;25.37;46.67;99747.63;5029299;28;20072;-67
2021/09/01 09:30:23;;;;;;;9.70;5.53;;;;;;;24.22;50.34;99754.28;5020654;28;20470;-68
2021/09/01 09:32:55;;;;;;;7.88;5.72;;;;;;;26.23;46.72;99754.94;5021506;28;20025;-69
2021/09/01 09:35:20;;;;;;;9.60;5.57;;;;;;;29.81;38.65;99739.00;5027114;28;20021;-67
2021/09/01 09:38:04;;;;;;;7.65;5.57;;;;;;;30.50;37.15;99750.19;5020163;28;20028;-69
2021/09/01 09:40:31;;;;;;;10.77;5.30;;;;;;;28.27;41.90;99753.63;5024123;28;20522;-74
2021/09/01 09:42:57;;;;;;;6.97;5.18;;;;;;;30.78;37.56;99738.94;5030250;28;20112;-72
2021/09/01 09:45:24;;;;;;;5.68;4.32;;;;;;;31.79;36.62;99745.94;5037383;28;20025;-76
2021/09/01 09:47:56;;;;;;;5.72;4.00;;;;;;;34.08;32.39;99743.78;5034753;28;20075;-73
2021/09/01 09:50:21;;;;;;;6.95;4.40;;;;;;;34.09;32.37;99735.03;5032610;28;20052;-71
2021/09/01 09:52:48;;;;;;;6.50;5.03;;;;;;;33.29;32.51;99741.16;5032134;28;20057;-73
2021/09/01 09:55:15;;;;;;;5.45;4.45;;;;;;;30.55;37.10;99740.88;5031606;28;20029;-71
2021/09/01 09:58:02;;;;;;;6.85;4.07;;;;;;;28.23;42.19;99744.22;5031416;28;20049;-68
2021/09/01 10:00:29;;;;;;;5.90;4.50;;;;;;;29.55;41.34;99738.63;5031621;28;20483;-71
2021/09/01 10:02:54;;;;;;;5.38;4.57;;;;;;;30.28;39.61;99725.78;5031776;28;20037;-71
2021/09/01 10:05:23;;;;;;;5.25;4.32;;;;;;;29.22;41.63;99735.03;5031533;28;20029;-71
2021/09/01 10:07:48;;;;;;;6.05;4.65;;;;;;;27.17;44.82;99729.19;5030597;28;20067;-71
2021/09/01 10:10:15;;;;;;;6.28;4.75;;;;;;;25.43;50.16;99729.06;5031706;28;20038;-70
2021/09/01 10:12:45;;;;;;;5.18;4.32;;;;;;;24.35;51.61;99730.84;5028661;28;20032;-71
2021/09/01 10:15:25;;;;;;;10.23;5.00;;;;;;;23.25;55.52;99731.56;5030821;28;20060;-71
2021/09/01 10:17:58;;;;;;;8.77;5.40;;;;;;;23.72;54.68;99731.66;5030173;28;20049;-71
2021/09/01 10:20:25;;;;;;;8.43;6.32;;;;;;;23.50;54.99;99726.25;5017803;28;20030;-71
2021/09/01 10:23:05;;;;;;;8.88;5.90;;;;;;;24.43;52.48;99722.00;5031709;28;20032;-71
2021/09/01 10:25:41;;;;;;;9.05;6.20;;;;;;;26.20;49.28;99716.69;5033793;28;20025;-70
2021/09/01 10:30:34;;;;;;;7.60;5.30;;;;;;;29.96;39.92;99695.19;5045095;28;20052;-73
2021/09/01 10:33:00;;;;;;;6.40;5.47;;;;;;;31.80;36.50;99707.56;5055981;28;20033;-73
2021/09/01 10:35:27;;;;;;;7.32;5.13;;;;;;;31.87;37.57;99707.94;5037398;28;20029;-74
2021/09/01 10:37:54;;;;;;;10.25;4.60;;;;;;;31.12;39.05;99704.88;5059174;28;20746;-74
2021/09/01 10:40:22;;;;;;;8.60;4.70;;;;;;;31.35;37.87;99696.47;5063082;28;20403;-74
2021/09/01 10:42:49;;;;;;;5.13;3.80;;;;;;;31.25;37.72;99697.56;5060450;28;20028;-73
2021/09/01 10:45:17;;;;;;;5.13;3.80;;;;;;;30.43;37.62;99698.69;5075749;28;20392;-74
2021/09/01 10:47:51;;;;;;;5.55;3.90;;;;;;;28.76;40.89;99697.53;5062380;28;20033;-74
2021/09/01 10:50:23;;;;;;;7.10;3.67;;;;;;;28.45;42.05;99699.97;5069293;28;20024;-73
2021/09/01 10:52:58;;;;;;;5.38;3.70;;;;;;;27.59;42.78;99702.66;5054106;28;20032;-74
2021/09/01 10:55:24;;;;;;;4.90;3.38;;;;;;;29.52;37.83;99691.00;5067869;28;20036;-73
2021/09/01 10:58:16;;;;;;;4.18;3.35;;;;;;;31.15;33.52;99706.19;5061967;28;20108;-73
2021/09/01 11:00:43;;;;;;;4.05;2.72;;;;;;;30.92;36.06;99699.81;5060932;28;20107;-73
2021/09/01 11:03:08;;;;;;;4.47;3.42;;;;;;;32.09;33.59;99696.69;5063274;28;20078;-74
2021/09/01 11:05:34;;;;;;;4.60;2.80;;;;;;;34.39;31.16;99698.47;5071108;28;20174;-72
2021/09/01 11:07:59;;;;;;;5.38;3.65;;;;;;;35.08;29.94;99692.34;5063981;28;20391;-72
2021/09/01 11:10:28;;;;;;;4.57;2.70;;;;;;;35.73;30.32;99689.00;5069424;28;20460;-73
2021/09/01 11:12:59;;;;;;;3.97;2.80;;;;;;;36.36;29.37;99683.81;5057300;28;20028;-74
2021/09/01 11:15:26;;;;;;;5.57;2.95;;;;;;;36.39;29.59;99680.31;5042578;28;20544;-74
2021/09/01 11:18:02;;;;;;;4.97;2.80;;;;;;;37.26;27.45;99676.03;5070246;28;20875;-73
2021/09/01 11:20:28;;;;;;;5.43;2.50;;;;;;;37.10;27.89;99688.47;5060027;28;20558;-74
2021/09/01 11:22:55;;;;;;;3.40;2.40;;;;;;;37.78;26.51;99679.81;5054151;28;20092;-74
2021/09/01 11:25:20;;;;;;;4.05;2.30;;;;;;;38.09;26.33;99672.53;5086196;28;20294;-74